Terminal Aerodrome Forecast
Issued by NWS Billings, MT

Home | Current Version | Previous Version | Graphics & Text | Print | Product List | Glossary On
Versions: 1 2 3 4 5 6 7 8 9 10 11 12 13 14 15 16 17 18 19
000
FTUS45 KBYZ 270916 AAB
TAFMLS
TAF AMD
KMLS 270916Z 2709/2806 15011KT P6SM VCSH FEW120
     FM271200 16012KT P6SM SCT150
     FM271900 31015G25KT P6SM VCTS SCT050CB BKN100
     FM280300 30014KT P6SM FEW050 SCT120=

USA.gov is the U.S. government's official web portal to all federal, state and local government web resources and services.